SEA weather

Seattle Tacoma International Airport
Seattle, Washington, United States

Public forecast

Using degrees Fahrenheit for public forecast. Weather courtesy of forecast.io.

METAR (pilot weather report)

Retrieved 2019/04/21 11:53 UTC (28 minutes ago):

KSEA 211153Z 19004KT 10SM BKN013 OVC040 09/06 A3024 RMK AO2 SLP246 T00890061 10111 20072 51019

TAF (pilot weather forecast)

Retrieved 2019/04/21 12:30 UTC (0 seconds ago):

TAF KSEA 211126Z 2112/2218 18004KT P6SM SCT012 SCT040 SCT200 TEMPO 2112/2116 BKN007 FM211600 20006KT P6SM BKN025 BKN040 FM212100 24008KT P6SM SCT040 BKN150 FM220800 19006KT P6SM BKN050 OVC120 FM221500 18006KT P6SM OVC070